Terminal Aerodrome Forecast
Issued by NWS Sterling, VA

Home | Current Version | Previous Version | Text Only | Print | Product List | Glossary On
Versions: 1 2 3 4 5 6 7 8 9 10 11 12 13 14 15 16 17 18 19 20 21 22 23
000
FTUS41 KLWX 072333
TAFDCA
TAF
KDCA 072333Z 0800/0824 20006KT P6SM FEW035
     FM080900 23004KT P6SM BKN070
     FM081600 24008KT P6SM -SHRA BKN050
     FM081900 24010KT P6SM -SHRA VCTS BKN040CB=

USA.gov is the U.S. government's official web portal to all federal, state and local government web resources and services.